sensor_id;sensor_type;location;lat;lon;timestamp;P1;durP1;ratioP1;P2;durP2;ratioP2
51236;SDS011;37312;47.550;18.818;2022-10-16T00:00:57;16.98;;;11.70;;
51236;SDS011;37312;47.550;18.818;2022-10-16T00:05:49;13.32;;;11.52;;
51236;SDS011;37312;47.550;18.818;2022-10-16T00:10:41;13.62;;;12.23;;
51236;SDS011;37312;47.550;18.818;2022-10-16T00:13:07;13.15;;;11.95;;
51236;SDS011;37312;47.550;18.818;2022-10-16T00:15:34;14.35;;;11.73;;
51236;SDS011;37312;47.550;18.818;2022-10-16T00:18:02;16.12;;;11.20;;
51236;SDS011;37312;47.550;18.818;2022-10-16T00:20:29;13.27;;;11.48;;
51236;SDS011;37312;47.550;18.818;2022-10-16T00:22:56;12.52;;;11.23;;
51236;SDS011;37312;47.550;18.818;2022-10-16T00:25:23;16.70;;;11.57;;
51236;SDS011;37312;47.550;18.818;2022-10-16T00:27:49;18.15;;;11.00;;
51236;SDS011;37312;47.550;18.818;2022-10-16T00:30:14;14.00;;;10.80;;
51236;SDS011;37312;47.550;18.818;2022-10-16T00:32:40;12.85;;;11.55;;
51236;SDS011;37312;47.550;18.818;2022-10-16T00:37:32;12.85;;;11.50;;
51236;SDS011;37312;47.550;18.818;2022-10-16T00:39:58;12.50;;;11.38;;
51236;SDS011;37312;47.550;18.818;2022-10-16T00:42:24;12.07;;;10.63;;
51236;SDS011;37312;47.550;18.818;2022-10-16T00:44:54;12.65;;;11.23;;
51236;SDS011;37312;47.550;18.818;2022-10-16T00:52:18;12.20;;;10.98;;
51236;SDS011;37312;47.550;18.818;2022-10-16T00:54:45;13.35;;;11.95;;
51236;SDS011;37312;47.550;18.818;2022-10-16T00:57:12;12.48;;;11.20;;
51236;SDS011;37312;47.550;18.818;2022-10-16T00:59:39;12.98;;;11.15;;
51236;SDS011;37312;47.550;18.818;2022-10-16T01:02:07;16.83;;;12.70;;
51236;SDS011;37312;47.550;18.818;2022-10-16T01:04:37;14.30;;;12.65;;
51236;SDS011;37312;47.550;18.818;2022-10-16T01:07:13;14.63;;;12.68;;
51236;SDS011;37312;47.550;18.818;2022-10-16T01:09:53;11.18;;;9.90;;
51236;SDS011;37312;47.550;18.818;2022-10-16T01:15:11;16.35;;;12.00;;
51236;SDS011;37312;47.550;18.818;2022-10-16T01:18:11;10.60;;;7.32;;
51236;SDS011;37312;47.550;18.818;2022-10-16T01:23:31;17.90;;;12.70;;
51236;SDS011;37312;47.550;18.818;2022-10-16T01:26:24;15.70;;;12.90;;
51236;SDS011;37312;47.550;18.818;2022-10-16T01:29:00;14.20;;;12.85;;
51236;SDS011;37312;47.550;18.818;2022-10-16T01:31:35;13.52;;;12.13;;
51236;SDS011;37312;47.550;18.818;2022-10-16T01:37:24;18.00;;;11.70;;
51236;SDS011;37312;47.550;18.818;2022-10-16T01:40:23;14.00;;;12.27;;
51236;SDS011;37312;47.550;18.818;2022-10-16T01:42:52;13.18;;;12.02;;
51236;SDS011;37312;47.550;18.818;2022-10-16T01:45:24;15.32;;;12.20;;
51236;SDS011;37312;47.550;18.818;2022-10-16T01:47:52;14.27;;;12.40;;
51236;SDS011;37312;47.550;18.818;2022-10-16T01:50:19;13.77;;;11.65;;
51236;SDS011;37312;47.550;18.818;2022-10-16T01:52:47;11.63;;;10.52;;
51236;SDS011;37312;47.550;18.818;2022-10-16T01:55:18;13.05;;;11.27;;
51236;SDS011;37312;47.550;18.818;2022-10-16T01:57:49;16.20;;;12.95;;
51236;SDS011;37312;47.550;18.818;2022-10-16T02:00:19;14.85;;;11.85;;
51236;SDS011;37312;47.550;18.818;2022-10-16T02:02:47;14.45;;;13.05;;
51236;SDS011;37312;47.550;18.818;2022-10-16T02:05:31;12.73;;;11.40;;
51236;SDS011;37312;47.550;18.818;2022-10-16T02:08:10;15.68;;;14.25;;
51236;SDS011;37312;47.550;18.818;2022-10-16T02:13:13;13.13;;;11.43;;
51236;SDS011;37312;47.550;18.818;2022-10-16T02:15:44;12.63;;;11.40;;
51236;SDS011;37312;47.550;18.818;2022-10-16T02:21:10;13.68;;;12.43;;
51236;SDS011;37312;47.550;18.818;2022-10-16T02:26:41;13.77;;;10.90;;
51236;SDS011;37312;47.550;18.818;2022-10-16T02:29:15;14.05;;;11.10;;
51236;SDS011;37312;47.550;18.818;2022-10-16T02:31:45;12.45;;;11.27;;
51236;SDS011;37312;47.550;18.818;2022-10-16T02:34:14;13.85;;;11.52;;
51236;SDS011;37312;47.550;18.818;2022-10-16T02:36:43;14.52;;;12.27;;
51236;SDS011;37312;47.550;18.818;2022-10-16T02:39:11;13.88;;;12.18;;
51236;SDS011;37312;47.550;18.818;2022-10-16T02:44:03;13.52;;;11.20;;
51236;SDS011;37312;47.550;18.818;2022-10-16T02:46:29;12.90;;;11.88;;
51236;SDS011;37312;47.550;18.818;2022-10-16T02:48:55;11.63;;;10.55;;
51236;SDS011;37312;47.550;18.818;2022-10-16T02:51:21;13.62;;;11.00;;
51236;SDS011;37312;47.550;18.818;2022-10-16T02:53:47;17.08;;;11.63;;
51236;SDS011;37312;47.550;18.818;2022-10-16T02:58:39;17.95;;;11.40;;
51236;SDS011;37312;47.550;18.818;2022-10-16T03:01:05;15.10;;;11.60;;
51236;SDS011;37312;47.550;18.818;2022-10-16T03:05:56;13.32;;;11.55;;
51236;SDS011;37312;47.550;18.818;2022-10-16T03:08:22;18.83;;;12.18;;
51236;SDS011;37312;47.550;18.818;2022-10-16T03:10:50;16.15;;;11.82;;
51236;SDS011;37312;47.550;18.818;2022-10-16T03:13:17;11.77;;;10.23;;
51236;SDS011;37312;47.550;18.818;2022-10-16T03:15:45;12.10;;;10.80;;
51236;SDS011;37312;47.550;18.818;2022-10-16T03:20:37;17.02;;;11.50;;
51236;SDS011;37312;47.550;18.818;2022-10-16T03:23:05;10.57;;;9.60;;
51236;SDS011;37312;47.550;18.818;2022-10-16T03:25:35;12.70;;;11.55;;
51236;SDS011;37312;47.550;18.818;2022-10-16T03:28:06;13.50;;;11.50;;
51236;SDS011;37312;47.550;18.818;2022-10-16T03:30:32;12.05;;;10.35;;
51236;SDS011;37312;47.550;18.818;2022-10-16T03:35:24;10.90;;;10.00;;
51236;SDS011;37312;47.550;18.818;2022-10-16T03:40:16;11.10;;;10.10;;
51236;SDS011;37312;47.550;18.818;2022-10-16T03:42:43;14.73;;;10.30;;
51236;SDS011;37312;47.550;18.818;2022-10-16T03:45:09;11.90;;;9.52;;
51236;SDS011;37312;47.550;18.818;2022-10-16T03:47:35;10.43;;;9.43;;
51236;SDS011;37312;47.550;18.818;2022-10-16T03:50:02;11.98;;;10.77;;
51236;SDS011;37312;47.550;18.818;2022-10-16T03:52:29;10.98;;;9.40;;
51236;SDS011;37312;47.550;18.818;2022-10-16T03:54:55;13.80;;;10.50;;
51236;SDS011;37312;47.550;18.818;2022-10-16T03:57:21;11.05;;;9.63;;
51236;SDS011;37312;47.550;18.818;2022-10-16T03:59:47;11.82;;;10.40;;
51236;SDS011;37312;47.550;18.818;2022-10-16T04:04:39;11.52;;;10.35;;
51236;SDS011;37312;47.550;18.818;2022-10-16T04:07:04;16.67;;;11.18;;
51236;SDS011;37312;47.550;18.818;2022-10-16T04:09:30;14.27;;;10.27;;
51236;SDS011;37312;47.550;18.818;2022-10-16T04:11:56;11.52;;;9.90;;
51236;SDS011;37312;47.550;18.818;2022-10-16T04:14:22;12.13;;;9.75;;
51236;SDS011;37312;47.550;18.818;2022-10-16T04:16:48;10.75;;;9.75;;
51236;SDS011;37312;47.550;18.818;2022-10-16T04:19:14;13.45;;;11.00;;
51236;SDS011;37312;47.550;18.818;2022-10-16T04:21:40;11.82;;;9.75;;
51236;SDS011;37312;47.550;18.818;2022-10-16T04:24:06;13.98;;;10.13;;
51236;SDS011;37312;47.550;18.818;2022-10-16T04:26:32;11.43;;;10.40;;
51236;SDS011;37312;47.550;18.818;2022-10-16T04:28:58;12.20;;;10.90;;
51236;SDS011;37312;47.550;18.818;2022-10-16T04:31:24;11.45;;;10.40;;
51236;SDS011;37312;47.550;18.818;2022-10-16T04:33:50;12.68;;;11.15;;
51236;SDS011;37312;47.550;18.818;2022-10-16T04:36:15;12.10;;;10.90;;
51236;SDS011;37312;47.550;18.818;2022-10-16T04:38:41;17.35;;;10.38;;
51236;SDS011;37312;47.550;18.818;2022-10-16T04:41:07;12.32;;;10.77;;
51236;SDS011;37312;47.550;18.818;2022-10-16T04:43:33;12.55;;;11.15;;
51236;SDS011;37312;47.550;18.818;2022-10-16T04:46:00;13.23;;;11.88;;
51236;SDS011;37312;47.550;18.818;2022-10-16T04:48:27;11.55;;;10.30;;
51236;SDS011;37312;47.550;18.818;2022-10-16T04:50:53;14.87;;;11.68;;
51236;SDS011;37312;47.550;18.818;2022-10-16T04:53:19;13.43;;;11.88;;
51236;SDS011;37312;47.550;18.818;2022-10-16T04:55:45;12.48;;;10.50;;
51236;SDS011;37312;47.550;18.818;2022-10-16T04:58:11;13.05;;;10.85;;
51236;SDS011;37312;47.550;18.818;2022-10-16T05:00:37;12.80;;;11.50;;
51236;SDS011;37312;47.550;18.818;2022-10-16T05:05:32;14.30;;;12.93;;
51236;SDS011;37312;47.550;18.818;2022-10-16T05:07:59;17.10;;;11.80;;
51236;SDS011;37312;47.550;18.818;2022-10-16T05:10:25;14.05;;;12.45;;
51236;SDS011;37312;47.550;18.818;2022-10-16T05:12:50;12.07;;;10.95;;
51236;SDS011;37312;47.550;18.818;2022-10-16T05:15:17;12.18;;;11.00;;
51236;SDS011;37312;47.550;18.818;2022-10-16T05:17:44;12.05;;;10.38;;
51236;SDS011;37312;47.550;18.818;2022-10-16T05:20:10;12.45;;;11.20;;
51236;SDS011;37312;47.550;18.818;2022-10-16T05:22:36;11.48;;;10.32;;
51236;SDS011;37312;47.550;18.818;2022-10-16T05:25:03;13.45;;;12.15;;
51236;SDS011;37312;47.550;18.818;2022-10-16T05:27:29;11.48;;;10.38;;
51236;SDS011;37312;47.550;18.818;2022-10-16T05:29:55;12.07;;;10.77;;
51236;SDS011;37312;47.550;18.818;2022-10-16T05:32:21;13.48;;;12.18;;
51236;SDS011;37312;47.550;18.818;2022-10-16T05:34:46;6.55;;;5.18;;
51236;SDS011;37312;47.550;18.818;2022-10-16T05:37:13;12.95;;;11.57;;
51236;SDS011;37312;47.550;18.818;2022-10-16T05:39:39;11.50;;;10.38;;
51236;SDS011;37312;47.550;18.818;2022-10-16T05:42:05;13.40;;;11.80;;
51236;SDS011;37312;47.550;18.818;2022-10-16T05:44:31;13.88;;;12.30;;
51236;SDS011;37312;47.550;18.818;2022-10-16T05:46:57;13.70;;;12.43;;
51236;SDS011;37312;47.550;18.818;2022-10-16T05:51:49;12.80;;;11.73;;
51236;SDS011;37312;47.550;18.818;2022-10-16T05:56:41;8.55;;;6.18;;
51236;SDS011;37312;47.550;18.818;2022-10-16T05:59:07;18.55;;;12.25;;
51236;SDS011;37312;47.550;18.818;2022-10-16T06:01:33;17.33;;;12.80;;
51236;SDS011;37312;47.550;18.818;2022-10-16T06:03:59;13.43;;;12.13;;
51236;SDS011;37312;47.550;18.818;2022-10-16T06:06:26;15.55;;;12.52;;
51236;SDS011;37312;47.550;18.818;2022-10-16T06:08:54;14.85;;;13.27;;
51236;SDS011;37312;47.550;18.818;2022-10-16T06:11:25;13.95;;;11.73;;
51236;SDS011;37312;47.550;18.818;2022-10-16T06:13:52;13.62;;;12.25;;
51236;SDS011;37312;47.550;18.818;2022-10-16T06:16:23;16.75;;;11.68;;
51236;SDS011;37312;47.550;18.818;2022-10-16T06:18:51;15.40;;;11.38;;
51236;SDS011;37312;47.550;18.818;2022-10-16T06:21:19;13.52;;;12.10;;
51236;SDS011;37312;47.550;18.818;2022-10-16T06:23:46;12.98;;;11.68;;
51236;SDS011;37312;47.550;18.818;2022-10-16T06:26:13;12.90;;;11.70;;
51236;SDS011;37312;47.550;18.818;2022-10-16T06:28:41;14.73;;;10.70;;
51236;SDS011;37312;47.550;18.818;2022-10-16T06:31:08;14.40;;;10.90;;
51236;SDS011;37312;47.550;18.818;2022-10-16T06:33:36;13.20;;;11.65;;
51236;SDS011;37312;47.550;18.818;2022-10-16T06:36:07;10.70;;;9.60;;
51236;SDS011;37312;47.550;18.818;2022-10-16T06:38:33;12.30;;;10.90;;
51236;SDS011;37312;47.550;18.818;2022-10-16T06:41:00;14.30;;;11.25;;
51236;SDS011;37312;47.550;18.818;2022-10-16T06:45:55;13.62;;;11.55;;
51236;SDS011;37312;47.550;18.818;2022-10-16T06:48:22;10.68;;;9.55;;
51236;SDS011;37312;47.550;18.818;2022-10-16T06:53:25;12.57;;;11.27;;
51236;SDS011;37312;47.550;18.818;2022-10-16T06:55:53;12.27;;;10.95;;
51236;SDS011;37312;47.550;18.818;2022-10-16T07:00:45;15.35;;;10.55;;
51236;SDS011;37312;47.550;18.818;2022-10-16T07:03:11;11.80;;;10.57;;
51236;SDS011;37312;47.550;18.818;2022-10-16T07:05:38;10.77;;;9.60;;
51236;SDS011;37312;47.550;18.818;2022-10-16T07:08:04;12.55;;;10.95;;
51236;SDS011;37312;47.550;18.818;2022-10-16T07:10:31;12.30;;;10.10;;
51236;SDS011;37312;47.550;18.818;2022-10-16T07:12:57;11.45;;;10.43;;
51236;SDS011;37312;47.550;18.818;2022-10-16T07:17:50;10.82;;;9.73;;
51236;SDS011;37312;47.550;18.818;2022-10-16T07:22:41;12.48;;;10.00;;
51236;SDS011;37312;47.550;18.818;2022-10-16T07:27:33;10.38;;;9.40;;
51236;SDS011;37312;47.550;18.818;2022-10-16T07:29:59;11.95;;;9.55;;
51236;SDS011;37312;47.550;18.818;2022-10-16T07:32:25;10.45;;;9.55;;
51236;SDS011;37312;47.550;18.818;2022-10-16T07:34:52;11.73;;;8.95;;
51236;SDS011;37312;47.550;18.818;2022-10-16T07:37:18;9.70;;;8.70;;
51236;SDS011;37312;47.550;18.818;2022-10-16T07:39:44;9.15;;;7.93;;
51236;SDS011;37312;47.550;18.818;2022-10-16T07:42:09;10.27;;;8.50;;
51236;SDS011;37312;47.550;18.818;2022-10-16T07:44:35;9.48;;;7.55;;
51236;SDS011;37312;47.550;18.818;2022-10-16T07:47:01;8.77;;;8.00;;
51236;SDS011;37312;47.550;18.818;2022-10-16T07:49:28;9.90;;;7.43;;
51236;SDS011;37312;47.550;18.818;2022-10-16T07:51:54;8.00;;;7.28;;
51236;SDS011;37312;47.550;18.818;2022-10-16T07:54:20;16.40;;;8.60;;
51236;SDS011;37312;47.550;18.818;2022-10-16T07:56:45;11.10;;;6.75;;
51236;SDS011;37312;47.550;18.818;2022-10-16T08:01:37;10.18;;;9.07;;
51236;SDS011;37312;47.550;18.818;2022-10-16T08:04:03;8.93;;;6.93;;
51236;SDS011;37312;47.550;18.818;2022-10-16T08:06:34;10.90;;;7.65;;
51236;SDS011;37312;47.550;18.818;2022-10-16T08:09:02;8.15;;;7.50;;
51236;SDS011;37312;47.550;18.818;2022-10-16T08:11:28;9.07;;;7.80;;
51236;SDS011;37312;47.550;18.818;2022-10-16T08:13:54;8.88;;;8.13;;
51236;SDS011;37312;47.550;18.818;2022-10-16T08:16:20;9.30;;;7.93;;
51236;SDS011;37312;47.550;18.818;2022-10-16T08:18:46;21.77;;;10.07;;
51236;SDS011;37312;47.550;18.818;2022-10-16T08:21:14;8.40;;;7.55;;
51236;SDS011;37312;47.550;18.818;2022-10-16T08:23:42;16.05;;;7.72;;
51236;SDS011;37312;47.550;18.818;2022-10-16T08:26:09;10.48;;;8.20;;
51236;SDS011;37312;47.550;18.818;2022-10-16T08:28:36;13.43;;;7.35;;
51236;SDS011;37312;47.550;18.818;2022-10-16T08:31:09;11.70;;;7.95;;
51236;SDS011;37312;47.550;18.818;2022-10-16T08:33:35;9.35;;;7.35;;
51236;SDS011;37312;47.550;18.818;2022-10-16T08:36:02;11.65;;;6.82;;
51236;SDS011;37312;47.550;18.818;2022-10-16T08:38:29;7.37;;;5.93;;
51236;SDS011;37312;47.550;18.818;2022-10-16T08:40:57;11.43;;;7.50;;
51236;SDS011;37312;47.550;18.818;2022-10-16T08:44:20;8.23;;;6.75;;
51236;SDS011;37312;47.550;18.818;2022-10-16T08:46:46;8.38;;;6.80;;
51236;SDS011;37312;47.550;18.818;2022-10-16T08:49:15;10.10;;;7.57;;
51236;SDS011;37312;47.550;18.818;2022-10-16T08:51:41;7.82;;;7.05;;
51236;SDS011;37312;47.550;18.818;2022-10-16T08:56:56;7.15;;;6.07;;
51236;SDS011;37312;47.550;18.818;2022-10-16T08:59:26;8.90;;;6.10;;
51236;SDS011;37312;47.550;18.818;2022-10-16T09:01:52;9.30;;;7.20;;
51236;SDS011;37312;47.550;18.818;2022-10-16T09:10:16;10.25;;;6.65;;
51236;SDS011;37312;47.550;18.818;2022-10-16T09:13:10;8.48;;;7.57;;
51236;SDS011;37312;47.550;18.818;2022-10-16T09:21:31;15.70;;;8.32;;
51236;SDS011;37312;47.550;18.818;2022-10-16T09:24:17;8.45;;;7.68;;
51236;SDS011;37312;47.550;18.818;2022-10-16T09:26:45;8.23;;;6.90;;
51236;SDS011;37312;47.550;18.818;2022-10-16T09:29:13;10.23;;;7.20;;
51236;SDS011;37312;47.550;18.818;2022-10-16T09:31:40;7.87;;;6.95;;
51236;SDS011;37312;47.550;18.818;2022-10-16T09:34:09;8.48;;;7.68;;
51236;SDS011;37312;47.550;18.818;2022-10-16T09:36:59;11.45;;;6.43;;
51236;SDS011;37312;47.550;18.818;2022-10-16T09:39:26;6.82;;;6.22;;
51236;SDS011;37312;47.550;18.818;2022-10-16T09:41:52;6.53;;;5.93;;
51236;SDS011;37312;47.550;18.818;2022-10-16T09:44:22;8.48;;;7.12;;
51236;SDS011;37312;47.550;18.818;2022-10-16T09:46:49;7.82;;;7.10;;
51236;SDS011;37312;47.550;18.818;2022-10-16T09:49:26;7.50;;;6.70;;
51236;SDS011;37312;47.550;18.818;2022-10-16T09:52:05;8.15;;;7.30;;
51236;SDS011;37312;47.550;18.818;2022-10-16T09:54:36;8.40;;;7.60;;
51236;SDS011;37312;47.550;18.818;2022-10-16T09:57:10;10.73;;;7.75;;
51236;SDS011;37312;47.550;18.818;2022-10-16T09:59:48;8.73;;;7.85;;
51236;SDS011;37312;47.550;18.818;2022-10-16T10:02:29;7.30;;;6.65;;
51236;SDS011;37312;47.550;18.818;2022-10-16T10:04:58;8.32;;;7.53;;
51236;SDS011;37312;47.550;18.818;2022-10-16T10:07:28;11.50;;;6.95;;
51236;SDS011;37312;47.550;18.818;2022-10-16T10:10:01;8.93;;;8.15;;
51236;SDS011;37312;47.550;18.818;2022-10-16T10:12:30;8.18;;;7.43;;
51236;SDS011;37312;47.550;18.818;2022-10-16T10:14:58;9.57;;;7.43;;
51236;SDS011;37312;47.550;18.818;2022-10-16T10:17:31;13.93;;;7.80;;
51236;SDS011;37312;47.550;18.818;2022-10-16T10:20:01;8.20;;;6.78;;
51236;SDS011;37312;47.550;18.818;2022-10-16T10:22:42;8.43;;;6.93;;
51236;SDS011;37312;47.550;18.818;2022-10-16T10:32:54;9.55;;;8.35;;
51236;SDS011;37312;47.550;18.818;2022-10-16T10:43:21;8.57;;;7.65;;
51236;SDS011;37312;47.550;18.818;2022-10-16T10:46:05;7.85;;;6.97;;
51236;SDS011;37312;47.550;18.818;2022-10-16T10:51:22;10.80;;;7.80;;
51236;SDS011;37312;47.550;18.818;2022-10-16T10:54:10;7.93;;;7.28;;
51236;SDS011;37312;47.550;18.818;2022-10-16T10:56:41;16.80;;;7.20;;
51236;SDS011;37312;47.550;18.818;2022-10-16T10:59:37;8.60;;;7.37;;
51236;SDS011;37312;47.550;18.818;2022-10-16T11:05:12;10.18;;;9.18;;
51236;SDS011;37312;47.550;18.818;2022-10-16T11:07:48;9.65;;;7.82;;
51236;SDS011;37312;47.550;18.818;2022-10-16T11:12:54;7.82;;;7.12;;
51236;SDS011;37312;47.550;18.818;2022-10-16T11:15:35;9.60;;;7.95;;
51236;SDS011;37312;47.550;18.818;2022-10-16T11:18:11;11.93;;;6.22;;
51236;SDS011;37312;47.550;18.818;2022-10-16T11:23:27;11.90;;;7.43;;
51236;SDS011;37312;47.550;18.818;2022-10-16T11:25:56;10.75;;;7.75;;
51236;SDS011;37312;47.550;18.818;2022-10-16T11:28:37;11.75;;;8.90;;
51236;SDS011;37312;47.550;18.818;2022-10-16T11:37:01;7.05;;;6.35;;
51236;SDS011;37312;47.550;18.818;2022-10-16T11:39:35;10.50;;;8.25;;
51236;SDS011;37312;47.550;18.818;2022-10-16T11:42:10;8.32;;;7.40;;
51236;SDS011;37312;47.550;18.818;2022-10-16T11:44:44;6.32;;;5.72;;
51236;SDS011;37312;47.550;18.818;2022-10-16T11:50:21;8.03;;;7.33;;
51236;SDS011;37312;47.550;18.818;2022-10-16T11:55:32;14.20;;;7.28;;
51236;SDS011;37312;47.550;18.818;2022-10-16T12:03:28;7.55;;;6.68;;
51236;SDS011;37312;47.550;18.818;2022-10-16T12:06:03;8.18;;;7.35;;
51236;SDS011;37312;47.550;18.818;2022-10-16T12:08:37;9.40;;;7.55;;
51236;SDS011;37312;47.550;18.818;2022-10-16T12:11:08;7.95;;;7.12;;
51236;SDS011;37312;47.550;18.818;2022-10-16T12:13:46;7.07;;;6.45;;
51236;SDS011;37312;47.550;18.818;2022-10-16T12:18:40;8.00;;;5.95;;
51236;SDS011;37312;47.550;18.818;2022-10-16T12:21:07;6.57;;;6.00;;
51236;SDS011;37312;47.550;18.818;2022-10-16T12:23:38;9.35;;;7.10;;
51236;SDS011;37312;47.550;18.818;2022-10-16T12:26:13;8.07;;;6.60;;
51236;SDS011;37312;47.550;18.818;2022-10-16T12:28:39;6.22;;;5.57;;
51236;SDS011;37312;47.550;18.818;2022-10-16T12:31:07;8.23;;;7.53;;
51236;SDS011;37312;47.550;18.818;2022-10-16T12:33:42;8.00;;;6.40;;
51236;SDS011;37312;47.550;18.818;2022-10-16T12:36:31;7.22;;;5.00;;
51236;SDS011;37312;47.550;18.818;2022-10-16T12:38:59;10.90;;;6.93;;
51236;SDS011;37312;47.550;18.818;2022-10-16T12:41:27;6.47;;;5.65;;
51236;SDS011;37312;47.550;18.818;2022-10-16T12:43:54;8.63;;;6.90;;
51236;SDS011;37312;47.550;18.818;2022-10-16T12:46:21;6.28;;;5.78;;
51236;SDS011;37312;47.550;18.818;2022-10-16T12:48:50;7.68;;;6.72;;
51236;SDS011;37312;47.550;18.818;2022-10-16T12:56:37;7.97;;;6.25;;
51236;SDS011;37312;47.550;18.818;2022-10-16T13:04:34;12.30;;;7.78;;
51236;SDS011;37312;47.550;18.818;2022-10-16T13:28:30;34.88;;;12.43;;
51236;SDS011;37312;47.550;18.818;2022-10-16T13:30:59;8.23;;;7.35;;
51236;SDS011;37312;47.550;18.818;2022-10-16T13:33:39;11.10;;;8.00;;
51236;SDS011;37312;47.550;18.818;2022-10-16T13:36:18;7.60;;;6.80;;
51236;SDS011;37312;47.550;18.818;2022-10-16T13:38:45;6.75;;;6.03;;
51236;SDS011;37312;47.550;18.818;2022-10-16T13:41:16;9.80;;;6.20;;
51236;SDS011;37312;47.550;18.818;2022-10-16T13:46:13;6.32;;;5.82;;
51236;SDS011;37312;47.550;18.818;2022-10-16T13:48:59;5.97;;;5.20;;
51236;SDS011;37312;47.550;18.818;2022-10-16T13:51:30;7.80;;;6.80;;
51236;SDS011;37312;47.550;18.818;2022-10-16T13:53:57;8.95;;;6.78;;
51236;SDS011;37312;47.550;18.818;2022-10-16T13:56:27;7.00;;;6.35;;
51236;SDS011;37312;47.550;18.818;2022-10-16T13:59:05;8.52;;;6.97;;
51236;SDS011;37312;47.550;18.818;2022-10-16T14:01:47;8.43;;;7.12;;
51236;SDS011;37312;47.550;18.818;2022-10-16T14:04:13;7.50;;;6.45;;
51236;SDS011;37312;47.550;18.818;2022-10-16T14:06:41;7.22;;;6.62;;
51236;SDS011;37312;47.550;18.818;2022-10-16T14:11:47;11.98;;;6.25;;
51236;SDS011;37312;47.550;18.818;2022-10-16T14:14:17;7.65;;;5.75;;
51236;SDS011;37312;47.550;18.818;2022-10-16T14:16:44;6.55;;;4.97;;
51236;SDS011;37312;47.550;18.818;2022-10-16T14:19:18;8.68;;;5.50;;
51236;SDS011;37312;47.550;18.818;2022-10-16T14:21:44;6.53;;;5.70;;
51236;SDS011;37312;47.550;18.818;2022-10-16T14:24:11;7.12;;;6.43;;
51236;SDS011;37312;47.550;18.818;2022-10-16T14:26:44;8.00;;;6.07;;
51236;SDS011;37312;47.550;18.818;2022-10-16T14:29:14;5.82;;;5.12;;
51236;SDS011;37312;47.550;18.818;2022-10-16T14:31:53;5.62;;;4.87;;
51236;SDS011;37312;47.550;18.818;2022-10-16T14:34:42;10.00;;;5.82;;
51236;SDS011;37312;47.550;18.818;2022-10-16T14:37:23;12.90;;;5.40;;
51236;SDS011;37312;47.550;18.818;2022-10-16T14:39:53;6.00;;;5.35;;
51236;SDS011;37312;47.550;18.818;2022-10-16T14:42:21;10.63;;;6.05;;
51236;SDS011;37312;47.550;18.818;2022-10-16T14:44:54;8.70;;;6.75;;
51236;SDS011;37312;47.550;18.818;2022-10-16T14:47:21;7.85;;;5.03;;
51236;SDS011;37312;47.550;18.818;2022-10-16T14:49:52;6.75;;;6.15;;
51236;SDS011;37312;47.550;18.818;2022-10-16T14:52:20;8.88;;;6.50;;
51236;SDS011;37312;47.550;18.818;2022-10-16T14:54:50;7.55;;;5.68;;
51236;SDS011;37312;47.550;18.818;2022-10-16T14:57:19;7.18;;;6.57;;
51236;SDS011;37312;47.550;18.818;2022-10-16T14:59:48;6.60;;;5.35;;
51236;SDS011;37312;47.550;18.818;2022-10-16T15:02:32;7.12;;;5.30;;
51236;SDS011;37312;47.550;18.818;2022-10-16T15:05:16;6.07;;;5.65;;
51236;SDS011;37312;47.550;18.818;2022-10-16T15:07:45;5.43;;;4.93;;
51236;SDS011;37312;47.550;18.818;2022-10-16T15:10:12;12.00;;;6.68;;
51236;SDS011;37312;47.550;18.818;2022-10-16T15:12:39;6.43;;;5.80;;
51236;SDS011;37312;47.550;18.818;2022-10-16T15:15:48;5.43;;;4.50;;
51236;SDS011;37312;47.550;18.818;2022-10-16T15:18:00;6.18;;;5.65;;
51236;SDS011;37312;47.550;18.818;2022-10-16T15:20:27;6.53;;;5.07;;
51236;SDS011;37312;47.550;18.818;2022-10-16T15:22:55;5.90;;;5.40;;
51236;SDS011;37312;47.550;18.818;2022-10-16T15:25:36;6.32;;;5.72;;
51236;SDS011;37312;47.550;18.818;2022-10-16T15:28:05;5.00;;;4.53;;
51236;SDS011;37312;47.550;18.818;2022-10-16T15:30:32;13.98;;;11.88;;
51236;SDS011;37312;47.550;18.818;2022-10-16T15:32:58;13.50;;;10.35;;
51236;SDS011;37312;47.550;18.818;2022-10-16T15:35:24;8.95;;;8.05;;
51236;SDS011;37312;47.550;18.818;2022-10-16T15:37:50;9.27;;;6.87;;
51236;SDS011;37312;47.550;18.818;2022-10-16T15:40:17;5.28;;;4.87;;
51236;SDS011;37312;47.550;18.818;2022-10-16T15:42:44;7.87;;;6.43;;
51236;SDS011;37312;47.550;18.818;2022-10-16T15:45:10;6.80;;;6.05;;
51236;SDS011;37312;47.550;18.818;2022-10-16T15:47:37;10.70;;;6.28;;
51236;SDS011;37312;47.550;18.818;2022-10-16T15:50:04;8.77;;;6.10;;
51236;SDS011;37312;47.550;18.818;2022-10-16T15:52:30;8.05;;;5.60;;
51236;SDS011;37312;47.550;18.818;2022-10-16T15:54:57;5.18;;;4.70;;
51236;SDS011;37312;47.550;18.818;2022-10-16T15:57:23;6.85;;;6.25;;
51236;SDS011;37312;47.550;18.818;2022-10-16T15:59:50;8.23;;;6.45;;
51236;SDS011;37312;47.550;18.818;2022-10-16T16:02:16;7.72;;;6.30;;
51236;SDS011;37312;47.550;18.818;2022-10-16T16:04:42;9.85;;;8.07;;
51236;SDS011;37312;47.550;18.818;2022-10-16T16:07:08;9.57;;;7.35;;
51236;SDS011;37312;47.550;18.818;2022-10-16T16:11:59;8.38;;;7.57;;
51236;SDS011;37312;47.550;18.818;2022-10-16T16:14:26;7.78;;;6.93;;
51236;SDS011;37312;47.550;18.818;2022-10-16T16:20:28;7.53;;;6.90;;
51236;SDS011;37312;47.550;18.818;2022-10-16T16:25:20;11.38;;;8.93;;
51236;SDS011;37312;47.550;18.818;2022-10-16T16:27:46;9.43;;;8.45;;
51236;SDS011;37312;47.550;18.818;2022-10-16T16:32:38;11.85;;;10.63;;
51236;SDS011;37312;47.550;18.818;2022-10-16T16:35:04;10.57;;;9.20;;
51236;SDS011;37312;47.550;18.818;2022-10-16T16:37:33;11.82;;;9.70;;
51236;SDS011;37312;47.550;18.818;2022-10-16T16:39:59;14.93;;;10.48;;
51236;SDS011;37312;47.550;18.818;2022-10-16T16:44:51;12.10;;;10.25;;
51236;SDS011;37312;47.550;18.818;2022-10-16T16:49:43;9.93;;;8.98;;
51236;SDS011;37312;47.550;18.818;2022-10-16T16:54:34;10.27;;;8.10;;
51236;SDS011;37312;47.550;18.818;2022-10-16T16:59:26;8.43;;;7.62;;
51236;SDS011;37312;47.550;18.818;2022-10-16T17:04:17;8.93;;;8.10;;
51236;SDS011;37312;47.550;18.818;2022-10-16T17:06:44;12.05;;;9.02;;
51236;SDS011;37312;47.550;18.818;2022-10-16T17:09:10;11.05;;;8.10;;
51236;SDS011;37312;47.550;18.818;2022-10-16T17:11:40;9.25;;;7.68;;
51236;SDS011;37312;47.550;18.818;2022-10-16T17:14:08;10.00;;;8.30;;
51236;SDS011;37312;47.550;18.818;2022-10-16T17:16:35;11.15;;;9.45;;
51236;SDS011;37312;47.550;18.818;2022-10-16T17:19:03;9.60;;;8.80;;
51236;SDS011;37312;47.550;18.818;2022-10-16T17:21:31;12.18;;;8.00;;
51236;SDS011;37312;47.550;18.818;2022-10-16T17:23:57;12.80;;;8.07;;
51236;SDS011;37312;47.550;18.818;2022-10-16T17:26:24;12.35;;;8.88;;
51236;SDS011;37312;47.550;18.818;2022-10-16T17:28:54;9.02;;;8.13;;
51236;SDS011;37312;47.550;18.818;2022-10-16T17:31:23;10.85;;;8.73;;
51236;SDS011;37312;47.550;18.818;2022-10-16T17:33:53;10.13;;;9.25;;
51236;SDS011;37312;47.550;18.818;2022-10-16T17:38:45;7.10;;;6.50;;
51236;SDS011;37312;47.550;18.818;2022-10-16T17:43:45;8.93;;;8.02;;
51236;SDS011;37312;47.550;18.818;2022-10-16T17:46:12;9.20;;;8.27;;
51236;SDS011;37312;47.550;18.818;2022-10-16T17:48:40;9.60;;;8.18;;
51236;SDS011;37312;47.550;18.818;2022-10-16T17:51:08;8.38;;;7.57;;